Time;durP1;ratioP1;P1;durP2;ratioP2;P2;SDS_P1;SDS_P2;PMS_P1;PMS_P2;Temp;Humidity;BMP_temperature;BMP_pressure;BME280_temperature;BME280_humidity;BME280_pressure;Samples;Min_cycle;Max_cycle;Signal;HPM_P1;HPM_P2
2021/09/24 00:00:14;;;;;;;4.47;3.42;;;;;;;10.88;76.76;100866.00;1648973;86;23042;-57
2021/09/24 00:02:49;;;;;;;5.37;3.55;;;;;;;10.93;76.89;100861.79;1640225;85;21496;-57
2021/09/24 00:05:16;;;;;;;5.33;3.10;;;;;;;10.93;76.99;100860.45;1644456;86;21090;-57
2021/09/24 00:10:16;;;;;;;6.28;3.92;;;;;;;10.93;77.49;100851.06;1644285;86;21123;-57
2021/09/24 00:15:17;;;;;;;8.25;3.95;;;;;;;10.90;78.37;100842.67;1649883;86;21231;-57
2021/09/24 00:17:46;;;;;;;6.03;3.42;;;;;;;10.87;78.78;100846.33;1637159;85;21000;-56
2021/09/24 00:22:47;;;;;;;7.65;4.28;;;;;;;10.82;79.57;100841.59;1644884;85;21543;-57
2021/09/24 00:27:50;;;;;;;6.08;3.37;;;;;;;10.79;80.26;100844.39;1649564;86;21534;-54
2021/09/24 00:30:17;;;;;;;5.03;3.70;;;;;;;10.82;80.48;100844.28;1637178;85;21139;-54
2021/09/24 00:32:44;;;;;;;6.33;3.65;;;;;;;10.82;80.55;100843.39;1644922;86;21556;-54
2021/09/24 00:35:10;;;;;;;5.05;3.27;;;;;;;10.82;80.59;100841.59;1645862;85;21761;-55
2021/09/24 00:37:51;;;;;;;5.85;3.47;;;;;;;10.81;80.50;100830.91;1646564;86;21643;-55
2021/09/24 00:40:18;;;;;;;6.47;3.27;;;;;;;10.81;80.51;100833.14;1645108;86;21100;-55
2021/09/24 00:42:45;;;;;;;5.87;3.72;;;;;;;10.80;80.51;100830.05;1650646;86;21042;-56
2021/09/24 00:45:27;;;;;;;4.75;3.30;;;;;;;10.82;80.46;100831.31;1645012;86;21075;-53
2021/09/24 00:47:54;;;;;;;6.25;4.03;;;;;;;10.88;80.29;100830.64;1642400;86;21130;-54
2021/09/24 00:50:22;;;;;;;5.67;4.00;;;;;;;10.89;79.86;100821.66;1657742;84;21131;-54
2021/09/24 00:52:53;;;;;;;5.58;3.20;;;;;;;10.92;79.62;100826.06;1666537;84;21022;-54
2021/09/24 00:55:22;;;;;;;5.03;3.62;;;;;;;10.95;79.20;100821.06;1669165;85;21488;-54
2021/09/24 00:57:49;;;;;;;4.87;3.25;;;;;;;10.95;78.92;100813.02;1649618;85;21039;-55
2021/09/24 01:00:34;;;;;;;6.25;3.10;;;;;;;10.97;78.80;100809.81;1647669;85;21130;-54
2021/09/24 01:03:03;;;;;;;5.72;3.47;;;;;;;10.98;78.53;100808.88;1656338;85;26693;-55
2021/09/24 01:08:30;;;;;;;5.53;3.92;;;;;;;10.97;77.84;100803.96;1633299;86;21317;-56
2021/09/24 01:10:58;;;;;;;5.00;3.40;;;;;;;10.95;77.75;100803.63;1660457;85;21125;-56
2021/09/24 01:13:31;;;;;;;6.35;4.03;;;;;;;10.99;77.45;100807.46;1650266;86;21101;-57
2021/09/24 01:18:30;;;;;;;7.17;4.40;;;;;;;11.03;76.87;100806.90;1651942;86;21139;-57
2021/09/24 01:21:01;;;;;;;7.10;4.10;;;;;;;11.03;76.69;100809.58;1640452;86;21135;-57
2021/09/24 01:23:29;;;;;;;6.22;4.37;;;;;;;11.02;76.59;100813.20;1639216;85;21091;-56
2021/09/24 01:25:57;;;;;;;6.25;4.05;;;;;;;11.00;76.64;100802.51;1643383;86;21524;-57
2021/09/24 01:28:24;;;;;;;6.70;4.08;;;;;;;11.00;76.70;100810.55;1637078;85;21901;-54
2021/09/24 01:30:51;;;;;;;5.85;4.20;;;;;;;11.02;76.75;100797.09;1651514;85;21087;-54
2021/09/24 01:33:25;;;;;;;8.40;4.53;;;;;;;11.02;76.54;100806.01;1640173;85;21083;-55
2021/09/24 01:35:57;;;;;;;8.00;4.70;;;;;;;10.99;76.56;100790.03;1642793;86;21095;-56
2021/09/24 01:38:24;;;;;;;7.22;4.67;;;;;;;10.99;76.59;100795.88;1649506;86;21111;-55
2021/09/24 01:40:52;;;;;;;8.85;4.80;;;;;;;10.98;76.53;100791.44;1641321;85;21147;-56
2021/09/24 01:43:19;;;;;;;7.28;5.25;;;;;;;11.01;76.59;100787.30;1645660;86;21110;-55
2021/09/24 01:45:46;;;;;;;8.10;5.28;;;;;;;11.04;76.38;100785.84;1644767;86;21172;-55
2021/09/24 01:48:13;;;;;;;7.72;5.30;;;;;;;11.07;76.30;100777.68;1650337;86;21092;-55
2021/09/24 01:50:40;;;;;;;9.73;5.08;;;;;;;11.12;76.12;100769.47;1648994;85;21706;-55
2021/09/24 01:53:19;;;;;;;6.95;5.25;;;;;;;11.13;75.92;100768.05;1659042;85;21147;-55
2021/09/24 01:55:48;;;;;;;9.10;5.62;;;;;;;11.11;75.69;100765.89;1609436;85;21650;-54
2021/09/24 01:58:16;;;;;;;8.05;5.55;;;;;;;11.09;75.67;100761.53;1646059;85;21115;-55
2021/09/24 02:00:51;;;;;;;13.35;6.87;;;;;;;11.09;75.60;100757.03;1643108;85;21109;-55
2021/09/24 02:03:18;;;;;;;11.00;5.42;;;;;;;11.11;75.46;100759.19;1660482;85;21063;-55
2021/09/24 02:06:07;;;;;;;8.60;5.67;;;;;;;11.11;75.24;100749.80;1644143;85;21260;-54
2021/09/24 02:08:35;;;;;;;8.20;6.22;;;;;;;11.09;74.91;100748.98;1645120;86;21095;-54
2021/09/24 02:11:05;;;;;;;10.28;6.05;;;;;;;11.07;75.12;100749.51;1651929;86;21049;-54
2021/09/24 02:13:48;;;;;;;7.87;5.42;;;;;;;11.08;75.03;100740.52;1645842;85;21107;-54
2021/09/24 02:16:29;;;;;;;9.18;6.37;;;;;;;11.07;74.97;100736.09;1641183;85;21603;-54
2021/09/24 02:18:56;;;;;;;7.80;5.40;;;;;;;11.05;74.79;100729.91;1643613;85;20984;-55
2021/09/24 02:21:29;;;;;;;8.18;5.90;;;;;;;11.03;74.72;100734.46;1638204;85;21105;-54
2021/09/24 02:23:57;;;;;;;7.58;5.20;;;;;;;11.00;74.70;100726.53;1646913;85;21417;-54
2021/09/24 02:26:26;;;;;;;10.20;5.50;;;;;;;10.95;74.75;100725.35;1637837;87;21060;-55
2021/09/24 02:31:44;;;;;;;7.67;5.58;;;;;;;10.92;74.81;100713.84;1635287;87;21589;-54
2021/09/24 02:34:11;;;;;;;9.68;5.75;;;;;;;10.95;74.73;100713.77;1649817;86;21570;-56
2021/09/24 02:36:58;;;;;;;7.80;5.58;;;;;;;10.95;74.63;100707.05;1644412;85;21032;-57
2021/09/24 02:42:12;;;;;;;8.43;5.70;;;;;;;10.90;74.46;100700.52;1641602;85;21100;-56
2021/09/24 02:44:50;;;;;;;7.55;5.30;;;;;;;10.88;74.44;100696.53;1650892;86;21082;-57
2021/09/24 02:47:20;;;;;;;7.87;5.75;;;;;;;10.86;74.39;100696.20;1649295;86;21087;-58
2021/09/24 02:50:00;;;;;;;8.38;5.60;;;;;;;10.83;74.45;100691.81;1649210;85;21111;-57
2021/09/24 02:52:37;;;;;;;7.53;5.58;;;;;;;10.82;74.37;100683.36;1643137;86;21079;-56
2021/09/24 02:55:07;;;;;;;8.50;5.58;;;;;;;10.80;74.31;100682.55;1641793;86;21023;-56
2021/09/24 02:57:35;;;;;;;9.30;6.20;;;;;;;10.81;74.25;100676.70;1639149;85;21493;-56
2021/09/24 03:00:06;;;;;;;7.80;5.80;;;;;;;10.79;73.94;100672.75;1665076;86;21068;-56
2021/09/24 03:02:35;;;;;;;10.15;5.50;;;;;;;10.74;73.82;100668.03;1652917;85;21081;-56
2021/09/24 03:05:05;;;;;;;6.53;5.33;;;;;;;10.70;73.88;100662.34;1625763;86;21078;-56
2021/09/24 03:07:33;;;;;;;7.80;5.53;;;;;;;10.67;73.90;100670.51;1653608;85;21661;-56
2021/09/24 03:10:01;;;;;;;9.58;5.50;;;;;;;10.59;73.99;100667.66;1651340;85;21147;-57
2021/09/24 03:12:29;;;;;;;7.45;5.10;;;;;;;10.50;74.28;100668.00;1666441;85;21365;-58
2021/09/24 03:15:05;;;;;;;6.35;4.95;;;;;;;10.43;74.48;100669.12;1664746;85;21139;-57
2021/09/24 03:17:48;;;;;;;5.90;4.75;;;;;;;10.37;74.70;100670.18;1640333;85;21106;-57
2021/09/24 03:20:15;;;;;;;7.20;4.70;;;;;;;10.31;74.77;100679.34;1665845;85;21566;-56
2021/09/24 03:22:44;;;;;;;8.25;4.70;;;;;;;10.26;74.76;100681.27;1632161;86;21101;-56
2021/09/24 03:27:58;;;;;;;7.47;4.47;;;;;;;10.15;74.78;100679.45;1644929;85;21540;-56
2021/09/24 03:30:25;;;;;;;6.12;4.58;;;;;;;10.08;74.97;100668.55;1650723;85;21518;-58
2021/09/24 03:32:58;;;;;;;7.35;4.67;;;;;;;10.05;75.07;100670.84;1664343;84;21140;-57
2021/09/24 03:35:28;;;;;;;9.25;5.10;;;;;;;9.99;75.14;100667.91;1642792;85;21144;-56
2021/09/24 03:40:33;;;;;;;9.18;5.50;;;;;;;9.90;75.28;100666.89;1654938;85;21103;-57
2021/09/24 03:43:06;;;;;;;9.28;5.62;;;;;;;9.81;75.42;100656.47;1649851;85;21130;-57
2021/09/24 03:45:34;;;;;;;7.80;5.28;;;;;;;9.77;75.82;100650.81;1643813;86;21068;-56
2021/09/24 03:48:03;;;;;;;7.97;5.08;;;;;;;9.77;75.83;100652.16;1650454;85;21153;-57
2021/09/24 03:50:35;;;;;;;10.28;5.37;;;;;;;9.70;76.00;100638.09;1648863;85;21481;-56
2021/09/24 03:53:02;;;;;;;8.95;5.05;;;;;;;9.67;76.19;100647.56;1639168;86;21047;-56
2021/09/24 03:55:31;;;;;;;8.25;5.85;;;;;;;9.63;76.32;100641.45;1655335;85;21149;-58
2021/09/24 03:58:12;;;;;;;10.70;5.72;;;;;;;9.63;76.48;100640.56;1678349;85;21028;-57
2021/09/24 04:00:41;;;;;;;7.92;5.10;;;;;;;9.64;76.49;100637.85;1639474;86;21139;-57
2021/09/24 04:03:08;;;;;;;7.28;5.45;;;;;;;9.64;76.57;100645.88;1650200;85;21103;-57
2021/09/24 04:08:07;;;;;;;7.92;4.75;;;;;;;9.68;76.55;100644.84;1629632;86;21544;-57
2021/09/24 04:10:35;;;;;;;10.03;4.70;;;;;;;9.77;76.46;100649.47;1664119;86;21096;-57
2021/09/24 04:15:47;;;;;;;7.05;5.03;;;;;;;9.97;76.08;100642.98;1669040;85;21063;-57
2021/09/24 04:20:49;;;;;;;;;;;;;;;10.26;75.29;100630.84;1670957;86;21056;-57
2021/09/24 04:25:55;;;;;;;8.85;4.70;;;;;;;10.46;74.55;100639.53;1668367;84;21830;-57
2021/09/24 04:28:24;;;;;;;10.08;4.62;;;;;;;10.55;74.34;100636.98;1649014;85;21110;-57
2021/09/24 04:33:26;;;;;;;7.95;4.22;;;;;;;10.84;73.75;100627.00;1635959;86;21132;-57
2021/09/24 04:35:54;;;;;;;7.20;4.67;;;;;;;11.00;73.44;100617.88;1647574;85;21139;-57
2021/09/24 04:40:59;;;;;;;6.00;3.77;;;;;;;11.33;72.52;100629.55;1646035;86;20996;-56
2021/09/24 04:43:26;;;;;;;5.40;3.95;;;;;;;11.50;72.17;100621.28;1662208;84;21165;-56
2021/09/24 04:45:53;;;;;;;6.42;3.80;;;;;;;11.61;71.56;100609.64;1643367;85;21126;-57
2021/09/24 04:48:32;;;;;;;5.45;3.67;;;;;;;11.65;71.28;100609.91;1643375;86;21564;-58
2021/09/24 04:51:00;;;;;;;5.12;3.52;;;;;;;11.70;71.00;100616.41;1635147;86;21844;-57
2021/09/24 04:53:27;;;;;;;6.92;3.50;;;;;;;11.74;70.63;100622.95;1657410;86;21028;-57
2021/09/24 04:58:29;;;;;;;5.08;3.33;;;;;;;11.74;70.22;100600.11;1645783;86;21111;-57
2021/09/24 05:00:58;;;;;;;3.90;3.10;;;;;;;11.75;70.07;100595.15;1645118;86;21906;-57
2021/09/24 05:03:24;;;;;;;4.83;3.25;;;;;;;11.80;70.03;100599.44;1641072;85;21103;-57
2021/09/24 05:05:51;;;;;;;6.20;2.98;;;;;;;11.83;69.86;100598.00;1641020;85;21059;-57
2021/09/24 05:08:20;;;;;;;6.25;3.25;;;;;;;11.88;69.78;100602.70;1650663;86;21108;-58
2021/09/24 05:10:48;;;;;;;4.53;3.35;;;;;;;11.91;69.78;100590.47;1650182;86;21111;-57
2021/09/24 05:15:46;;;;;;;6.65;3.58;;;;;;;12.09;69.51;100605.42;1643537;86;21950;-55
2021/09/24 05:18:15;;;;;;;7.35;2.87;;;;;;;12.13;69.36;100604.34;1642380;85;21035;-55
2021/09/24 05:20:46;;;;;;;5.60;2.85;;;;;;;12.14;69.36;100606.09;1649046;86;21087;-54
2021/09/24 05:23:14;;;;;;;3.72;2.65;;;;;;;12.18;69.45;100599.18;1643327;86;21108;-55
2021/09/24 05:25:44;;;;;;;5.92;2.50;;;;;;;12.24;69.59;100595.32;1652258;86;21119;-56
2021/09/24 05:28:13;;;;;;;3.58;2.60;;;;;;;12.32;69.37;100595.88;1649603;85;21942;-54
2021/09/24 05:30:43;;;;;;;7.60;3.00;;;;;;;12.37;69.38;100593.44;1661846;85;21126;-54
2021/09/24 05:33:11;;;;;;;8.25;3.62;;;;;;;12.45;69.48;100595.30;1677160;84;21077;-54
2021/09/24 05:35:38;;;;;;;4.95;2.83;;;;;;;12.54;68.94;100593.55;1655313;85;21001;-55
2021/09/24 05:38:05;;;;;;;8.48;3.22;;;;;;;12.57;68.83;100598.79;1649337;86;21114;-54
2021/09/24 05:40:33;;;;;;;4.00;2.98;;;;;;;12.63;68.69;100599.45;1635843;86;21166;-54
2021/09/24 05:43:02;;;;;;;7.42;3.17;;;;;;;12.66;68.16;100596.61;1651409;86;21111;-55
2021/09/24 05:45:29;;;;;;;4.60;3.08;;;;;;;12.65;67.78;100589.48;1647487;85;21097;-54
2021/09/24 05:47:57;;;;;;;8.63;3.77;;;;;;;12.61;67.83;100584.25;1671837;84;21714;-54
2021/09/24 05:50:26;;;;;;;4.05;2.87;;;;;;;12.64;67.84;100587.74;1654233;85;21154;-54
2021/09/24 05:52:54;;;;;;;5.28;3.27;;;;;;;12.68;67.76;100600.09;1645230;85;21138;-54
2021/09/24 05:55:23;;;;;;;5.28;3.55;;;;;;;12.68;67.68;100594.72;1658553;85;21122;-55
2021/09/24 05:57:51;;;;;;;6.37;3.42;;;;;;;12.71;67.77;100603.98;1651329;85;21484;-54
2021/09/24 06:00:21;;;;;;;7.78;3.40;;;;;;;12.75;67.71;100609.16;1674952;84;21145;-54
2021/09/24 06:02:54;;;;;;;4.97;2.92;;;;;;;12.76;67.56;100607.36;1653696;85;21421;-55
2021/09/24 06:05:21;;;;;;;5.00;3.05;;;;;;;12.78;67.71;100613.54;1674246;84;21127;-55
2021/09/24 06:07:49;;;;;;;5.35;2.60;;;;;;;12.82;67.72;100616.48;1695643;83;21032;-56
2021/09/24 06:12:49;;;;;;;9.38;2.90;;;;;;;12.86;67.57;100615.38;1655377;85;21076;-54
2021/09/24 06:17:54;;;;;;;5.90;2.98;;;;;;;13.03;67.27;100604.30;1654428;85;21774;-55
2021/09/24 06:20:21;;;;;;;12.70;6.67;;;;;;;13.11;66.96;100610.18;1675890;84;21755;-56
2021/09/24 06:22:50;;;;;;;13.20;7.53;;;;;;;13.15;66.66;100611.81;1676050;83;21590;-55
2021/09/24 06:25:35;;;;;;;10.70;5.20;;;;;;;13.16;66.30;100614.02;1658466;85;21171;-55
2021/09/24 06:28:02;;;;;;;8.50;4.22;;;;;;;13.12;66.11;100615.97;1675774;84;21089;-54
2021/09/24 06:30:30;;;;;;;9.33;4.53;;;;;;;13.07;66.16;100609.94;1652337;85;21099;-56
2021/09/24 06:33:06;;;;;;;13.15;6.22;;;;;;;13.07;66.24;100611.77;1648425;86;21608;-56
2021/09/24 06:35:33;;;;;;;12.80;7.00;;;;;;;13.12;66.09;100625.38;1644916;84;21127;-54
2021/09/24 06:38:14;;;;;;;10.85;6.17;;;;;;;13.15;65.54;100625.27;1648378;86;21120;-54
2021/09/24 06:43:10;;;;;;;7.42;3.90;;;;;;;13.16;65.14;100627.47;1667737;85;21940;-54
2021/09/24 06:45:39;;;;;;;9.48;4.20;;;;;;;13.15;65.15;100617.19;1661666;85;21153;-54
2021/09/24 06:48:06;;;;;;;4.42;3.20;;;;;;;13.21;65.28;100617.84;1658125;84;21302;-55
2021/09/24 06:50:34;;;;;;;7.37;3.58;;;;;;;13.28;65.04;100606.70;1655352;85;21367;-54
2021/09/24 06:53:01;;;;;;;5.83;3.52;;;;;;;13.37;64.74;100606.69;1651655;85;21520;-54
2021/09/24 06:55:28;;;;;;;6.33;3.60;;;;;;;13.48;64.47;100602.65;1649219;86;21154;-55
2021/09/24 06:57:56;;;;;;;6.42;3.90;;;;;;;13.68;64.13;100606.56;1649777;85;21169;-55
2021/09/24 07:02:52;;;;;;;5.50;3.95;;;;;;;14.11;62.83;100595.88;1636121;85;21629;-54
2021/09/24 07:05:19;;;;;;;4.78;3.27;;;;;;;14.25;62.20;100586.56;1651865;84;21338;-56
2021/09/24 07:07:46;;;;;;;6.05;3.25;;;;;;;14.37;61.79;100593.63;1649633;85;21959;-55
2021/09/24 07:12:48;;;;;;;6.58;2.90;;;;;;;14.59;60.63;100583.41;1647936;85;21095;-55
2021/09/24 07:17:47;;;;;;;5.00;2.70;;;;;;;14.60;59.78;100568.97;1649499;85;20980;-55
2021/09/24 07:20:14;;;;;;;5.83;3.00;;;;;;;14.59;59.59;100561.83;1652506;84;21019;-55
2021/09/24 07:27:51;;;;;;;3.27;2.37;;;;;;;14.87;58.47;100544.12;1651705;84;21125;-55
2021/09/24 07:30:20;;;;;;;6.60;2.30;;;;;;;15.07;57.73;100531.33;1650439;85;21612;-55
2021/09/24 07:32:47;;;;;;;4.03;2.52;;;;;;;15.26;56.96;100530.27;1669268;84;21036;-55
2021/09/24 07:38:03;;;;;;;5.90;2.10;;;;;;;15.53;55.43;100509.33;1666602;84;21123;-56
2021/09/24 07:40:30;;;;;;;3.33;1.92;;;;;;;15.66;54.70;100500.00;1650947;86;21170;-56
2021/09/24 07:42:59;;;;;;;4.33;2.40;;;;;;;15.78;53.58;100494.33;1651992;85;21033;-55
2021/09/24 07:50:40;;;;;;;7.20;2.75;;;;;;;16.04;51.89;100465.27;1642481;86;21175;-57
2021/09/24 07:53:08;;;;;;;3.67;2.52;;;;;;;16.19;51.51;100462.53;1636612;85;21145;-57
2021/09/24 07:55:37;;;;;;;4.25;2.55;;;;;;;16.36;51.09;100447.96;1630869;86;21090;-57
2021/09/24 07:58:03;;;;;;;5.35;2.58;;;;;;;16.56;50.29;100448.01;1649271;85;21589;-57
2021/09/24 08:00:31;;;;;;;4.92;1.77;;;;;;;16.78;49.79;100439.83;1630188;86;21098;-57
2021/09/24 08:02:58;;;;;;;6.33;2.02;;;;;;;17.05;49.44;100436.28;1659602;85;21094;-57
2021/09/24 08:10:39;;;;;;;5.80;2.40;;;;;;;17.58;47.44;100430.86;1640166;86;21162;-58
2021/09/24 08:13:06;;;;;;;4.78;2.35;;;;;;;17.67;47.02;100417.63;1642648;85;21394;-58
2021/09/24 08:15:35;;;;;;;3.83;2.70;;;;;;;17.70;47.19;100412.02;1649734;85;21138;-58
2021/09/24 08:18:04;;;;;;;3.42;2.70;;;;;;;17.73;47.29;100401.80;1665418;84;21177;-57
2021/09/24 08:23:39;;;;;;;4.22;2.95;;;;;;;17.68;47.32;100395.84;1663374;84;21085;-59
2021/09/24 08:28:39;;;;;;;4.50;3.02;;;;;;;17.73;46.98;100412.64;1648439;85;21617;-57
2021/09/24 08:31:06;;;;;;;4.33;3.17;;;;;;;17.80;47.08;100404.09;1646233;85;21130;-57
2021/09/24 08:36:03;;;;;;;4.85;3.45;;;;;;;17.90;46.91;100405.16;1660284;85;21110;-57
2021/09/24 08:38:30;;;;;;;5.22;3.75;;;;;;;17.88;47.29;100398.48;1661592;86;21086;-59
2021/09/24 08:40:57;;;;;;;7.03;3.60;;;;;;;17.87;47.62;100380.98;1668115;84;21469;-57
2021/09/24 08:43:25;;;;;;;7.87;4.00;;;;;;;17.79;47.96;100383.35;1669756;84;21175;-57
2021/09/24 08:45:52;;;;;;;10.32;5.75;;;;;;;17.67;49.00;100402.24;1649003;84;21094;-57
2021/09/24 08:48:20;;;;;;;10.48;6.03;;;;;;;17.55;50.41;100397.67;1646397;85;21144;-59
2021/09/24 08:50:50;;;;;;;7.87;4.65;;;;;;;17.45;51.03;100398.33;1644800;85;21078;-57
2021/09/24 08:56:40;;;;;;;8.48;3.90;;;;;;;17.36;51.44;100371.89;1653542;85;21160;-59
2021/09/24 08:59:09;;;;;;;6.03;3.72;;;;;;;17.30;51.54;100354.20;1651648;85;21047;-58
2021/09/24 09:01:36;;;;;;;5.70;3.42;;;;;;;17.22;50.84;100353.00;1647729;85;21552;-58
2021/09/24 09:04:18;;;;;;;10.65;7.00;;;;;;;17.17;50.57;100368.21;1596938;87;21134;-58
2021/09/24 09:06:44;;;;;;;9.40;4.05;;;;;;;17.15;50.36;100365.63;1637369;86;20932;-57
2021/09/24 09:09:11;;;;;;;6.85;3.80;;;;;;;17.09;50.15;100352.98;1613923;86;21541;-57
2021/09/24 09:11:38;;;;;;;6.33;3.58;;;;;;;17.07;49.96;100356.30;1616402;87;21179;-58
2021/09/24 09:14:07;;;;;;;10.08;3.12;;;;;;;17.07;49.73;100344.95;1651416;85;21157;-57
2021/09/24 09:16:35;;;;;;;6.60;3.52;;;;;;;17.01;49.16;100353.52;1649531;85;21821;-58
2021/09/24 09:19:17;;;;;;;6.62;3.50;;;;;;;16.96;49.07;100351.58;1648734;86;21085;-57
2021/09/24 09:21:47;;;;;;;6.60;3.20;;;;;;;16.93;49.22;100336.91;1666475;84;21112;-58
2021/09/24 09:24:28;;;;;;;5.62;3.17;;;;;;;16.95;49.16;100347.14;1635073;86;21943;-57
2021/09/24 09:27:18;;;;;;;7.15;2.83;;;;;;;16.92;49.12;100331.95;1650977;85;21805;-59
2021/09/24 09:30:16;;;;;;;6.87;3.67;;;;;;;16.97;49.19;100327.59;1657828;85;21107;-57
2021/09/24 09:33:15;;;;;;;7.33;2.98;;;;;;;17.03;48.78;100314.53;1641294;85;21127;-59
2021/09/24 09:35:48;;;;;;;8.60;3.30;;;;;;;17.07;48.35;100311.10;1658583;85;21662;-58
2021/09/24 09:38:28;;;;;;;7.92;2.98;;;;;;;16.98;48.26;100311.25;1646017;85;21094;-59
2021/09/24 09:41:00;;;;;;;4.92;3.20;;;;;;;16.93;48.22;100309.83;1640783;85;21183;-57
2021/09/24 09:43:34;;;;;;;5.40;3.00;;;;;;;16.85;48.44;100314.41;1648369;85;21040;-57
2021/09/24 09:46:04;;;;;;;6.65;3.25;;;;;;;16.81;48.60;100308.33;1649461;85;21115;-59
2021/09/24 09:52:08;;;;;;;11.70;2.95;;;;;;;16.77;48.86;100302.75;1637567;86;21114;-58
2021/09/24 09:54:36;;;;;;;8.90;3.10;;;;;;;16.80;48.84;100299.83;1650638;86;21123;-57
2021/09/24 09:57:18;;;;;;;5.53;3.00;;;;;;;16.87;48.46;100298.42;1643490;85;21047;-58
2021/09/24 10:02:38;;;;;;;4.15;3.25;;;;;;;16.92;47.72;100289.14;1592945;85;21114;-57
2021/09/24 10:13:09;;;;;;;8.15;3.40;;;;;;;16.75;48.69;100283.04;1645538;85;21147;-58
2021/09/24 10:15:37;;;;;;;7.10;3.58;;;;;;;16.66;48.57;100291.30;1644848;85;21544;-58
2021/09/24 10:18:04;;;;;;;9.23;3.60;;;;;;;16.55;48.51;100282.55;1659840;83;21116;-58
2021/09/24 10:20:31;;;;;;;10.03;2.98;;;;;;;16.47;48.76;100272.75;1676841;83;21490;-58
2021/09/24 10:22:58;;;;;;;7.20;3.37;;;;;;;16.36;49.10;100263.12;1655937;84;21634;-59
2021/09/24 10:25:27;;;;;;;5.37;3.10;;;;;;;16.34;49.38;100265.91;1654278;85;21423;-58
2021/09/24 10:27:56;;;;;;;4.87;3.08;;;;;;;16.36;49.23;100267.17;1618814;86;21769;-58
2021/09/24 10:35:56;;;;;;;5.60;3.17;;;;;;;16.31;49.77;100245.37;1642792;86;21561;-58
2021/09/24 10:43:52;;;;;;;5.17;3.65;;;;;;;16.27;50.40;100251.95;1776102;80;21552;-61
2021/09/24 10:46:32;;;;;;;5.53;3.45;;;;;;;16.32;50.29;100248.45;1777016;79;21272;-57
2021/09/24 10:49:26;;;;;;;9.65;3.52;;;;;;;16.35;50.09;100241.09;1775170;80;21031;-57
2021/09/24 10:59:37;;;;;;;4.20;2.85;;;;;;;16.25;50.54;100215.16;1778783;79;20949;-55
2021/09/24 11:04:47;;;;;;;5.87;3.15;;;;;;;16.13;51.10;100220.41;1792331;79;21062;-54
2021/09/24 11:07:31;;;;;;;5.87;3.15;;;;;;;16.03;51.53;100237.75;1773887;79;20976;-56
2021/09/24 11:09:58;;;;;;;8.30;3.58;;;;;;;15.95;51.87;100244.63;1780235;80;21084;-54
2021/09/24 11:12:25;;;;;;;6.95;3.80;;;;;;;15.85;52.09;100245.19;1777419;79;21129;-54
2021/09/24 11:15:14;;;;;;;9.18;3.72;;;;;;;15.75;52.47;100242.71;1772348;79;20948;-55
2021/09/24 11:17:47;;;;;;;4.75;3.58;;;;;;;15.67;52.88;100249.96;1767097;80;21110;-57
2021/09/24 11:20:35;;;;;;;7.62;3.67;;;;;;;15.59;53.35;100245.05;1777243;80;20988;-57
2021/09/24 11:23:33;;;;;;;11.90;4.28;;;;;;;15.52;53.82;100244.19;1784559;79;21508;-56
2021/09/24 11:26:25;;;;;;;7.42;4.53;;;;;;;15.49;54.32;100247.08;1713812;82;21184;-56
2021/09/24 11:29:17;;;;;;;11.10;4.28;;;;;;;15.46;55.08;100249.02;1724368;81;21612;-56
2021/09/24 11:32:05;;;;;;;8.40;4.17;;;;;;;15.46;55.73;100246.31;1708707;82;21044;-57
2021/09/24 11:34:46;;;;;;;6.50;3.95;;;;;;;15.47;56.23;100245.34;1705818;82;21246;-56
2021/09/24 11:37:22;;;;;;;7.33;3.70;;;;;;;15.50;56.40;100257.80;1730409;80;21096;-56
2021/09/24 11:40:02;;;;;;;6.47;3.90;;;;;;;15.50;56.42;100256.92;1779818;79;21659;-56
2021/09/24 11:42:34;;;;;;;8.10;3.80;;;;;;;15.50;56.15;100255.10;1793143;79;22122;-54
2021/09/24 11:47:43;;;;;;;9.00;4.10;;;;;;;15.47;56.87;100252.56;1792795;79;21111;-54
2021/09/24 11:53:12;;;;;;;9.23;4.05;;;;;;;15.53;57.48;100258.07;1791170;80;21142;-56
2021/09/24 11:55:44;;;;;;;9.13;4.50;;;;;;;15.57;57.65;100251.03;1791283;79;21198;-55
2021/09/24 11:58:24;;;;;;;7.35;4.25;;;;;;;15.56;57.95;100253.81;1789559;79;21039;-56
2021/09/24 12:00:53;;;;;;;11.05;4.90;;;;;;;15.57;58.05;100260.48;1786488;78;21561;-56
2021/09/24 12:03:40;;;;;;;10.78;5.22;;;;;;;15.57;58.46;100263.66;1784529;78;21736;-55
2021/09/24 12:06:13;;;;;;;10.60;5.50;;;;;;;15.56;59.14;100259.22;1782333;80;21956;-55
2021/09/24 12:11:30;;;;;;;8.83;5.33;;;;;;;15.51;60.41;100273.52;1787573;80;21095;-57
2021/09/24 12:16:39;;;;;;;9.48;5.85;;;;;;;15.43;61.97;100278.93;1787898;78;21119;-58
2021/09/24 12:19:23;;;;;;;10.70;6.00;;;;;;;15.51;62.23;100274.87;1788451;80;21166;-59
2021/09/24 12:21:56;;;;;;;9.00;5.40;;;;;;;15.55;62.66;100268.30;1789521;78;21654;-58
2021/09/24 12:24:35;;;;;;;9.30;5.85;;;;;;;15.54;63.04;100274.66;1785428;78;21091;-57
2021/09/24 12:29:31;;;;;;;8.15;5.87;;;;;;;15.52;63.59;100264.45;1788139;79;21520;-58
2021/09/24 12:37:18;;;;;;;11.43;6.13;;;;;;;15.53;64.41;100272.93;1790671;80;21052;-58
2021/09/24 12:39:55;;;;;;;12.30;6.70;;;;;;;15.55;64.76;100269.64;1771622;80;21113;-56
2021/09/24 12:42:22;;;;;;;16.40;7.67;;;;;;;15.55;65.05;100275.94;1765684;80;21017;-57
2021/09/24 12:44:57;;;;;;;10.30;7.08;;;;;;;15.56;65.31;100279.48;1766323;81;21745;-58
2021/09/24 12:47:28;;;;;;;12.93;8.08;;;;;;;15.52;65.58;100270.73;1755096;79;21044;-56
2021/09/24 12:52:29;;;;;;;16.02;7.87;;;;;;;15.50;66.28;100269.08;1765973;81;21378;-57
2021/09/24 12:54:58;;;;;;;12.18;7.03;;;;;;;15.52;66.64;100273.90;1772475;80;21477;-57
2021/09/24 13:02:55;;;;;;;13.75;7.65;;;;;;;15.56;67.89;100260.58;1758225;79;21068;-57
2021/09/24 13:05:22;;;;;;;12.93;8.68;;;;;;;15.54;68.43;100255.29;1762419;79;21069;-57
2021/09/24 13:10:18;;;;;;;16.10;8.33;;;;;;;15.33;68.94;100237.24;1764900;81;21128;-57
2021/09/24 13:12:45;;;;;;;17.32;8.05;;;;;;;15.27;69.35;100234.94;1765161;80;21012;-57
2021/09/24 13:15:14;;;;;;;15.83;8.43;;;;;;;15.20;69.88;100233.59;1767665;79;21124;-57
2021/09/24 13:17:41;;;;;;;18.37;8.55;;;;;;;15.13;70.39;100250.16;1760949;79;21072;-57
2021/09/24 13:20:12;;;;;;;13.65;8.40;;;;;;;15.06;70.76;100259.61;1765513;81;21069;-57
2021/09/24 13:25:24;;;;;;;12.95;7.70;;;;;;;15.03;71.76;100248.55;1764765;81;21140;-58
2021/09/24 13:27:51;;;;;;;12.30;7.50;;;;;;;15.01;72.15;100240.14;1765855;79;21016;-58
2021/09/24 13:32:57;;;;;;;11.08;6.78;;;;;;;14.95;72.66;100235.13;1762178;81;21086;-57
2021/09/24 13:35:24;;;;;;;12.15;6.80;;;;;;;14.93;73.14;100230.31;1759776;78;21130;-56
2021/09/24 13:37:51;;;;;;;14.20;7.17;;;;;;;14.89;73.40;100227.77;1771675;78;21629;-57
2021/09/24 13:42:52;;;;;;;13.25;6.97;;;;;;;14.83;74.22;100216.02;1766692;81;21035;-57
2021/09/24 13:47:54;;;;;;;;;;;;;;;14.72;74.55;100211.77;1768996;79;21121;-59
2021/09/24 13:50:21;;;;;;;12.85;7.08;;;;;;;14.64;75.16;100201.88;1767901;80;20267;-57
2021/09/24 13:52:48;;;;;;;10.72;7.20;;;;;;;14.58;75.50;100191.86;1764512;81;21075;-57
2021/09/24 13:55:15;;;;;;;10.00;6.97;;;;;;;14.55;75.70;100201.48;1765325;79;21096;-58
2021/09/24 13:57:42;;;;;;;9.95;6.78;;;;;;;14.54;76.28;100201.10;1757218;79;21080;-58
2021/09/24 14:03:12;;;;;;;14.55;6.83;;;;;;;14.52;76.56;100194.05;1765941;79;21490;-56
2021/09/24 14:05:39;;;;;;;14.35;6.17;;;;;;;14.45;76.55;100185.45;1766926;79;21017;-55
2021/09/24 14:08:06;;;;;;;11.03;6.37;;;;;;;14.39;76.65;100188.07;1765814;79;21088;-55
2021/09/24 14:10:42;;;;;;;9.05;6.08;;;;;;;14.35;76.82;100180.24;1767329;79;21462;-55
2021/09/24 14:13:20;;;;;;;10.95;5.47;;;;;;;14.27;76.55;100169.45;1750026;81;21126;-56
2021/09/24 14:15:47;;;;;;;9.20;5.35;;;;;;;14.22;76.62;100172.02;1767968;80;21525;-56
2021/09/24 14:18:14;;;;;;;12.47;6.00;;;;;;;14.15;76.73;100170.16;1766324;79;21107;-56
2021/09/24 14:20:41;;;;;;;9.98;5.78;;;;;;;14.11;76.74;100168.12;1748088;79;21015;-54
2021/09/24 14:23:22;;;;;;;13.98;5.87;;;;;;;14.08;76.83;100167.45;1768528;80;21722;-54
2021/09/24 14:25:49;;;;;;;8.13;5.50;;;;;;;14.04;76.86;100170.34;1770071;79;21608;-55
2021/09/24 14:28:16;;;;;;;10.32;6.03;;;;;;;14.03;76.87;100175.31;1769026;79;21068;-55
2021/09/24 14:33:40;;;;;;;8.50;6.25;;;;;;;13.90;77.56;100179.70;1774892;79;21052;-54